createdAt,value
2019-01-26T00:01:47.671Z,51.30
2019-01-26T00:04:18.711Z,53.97
2019-01-26T00:06:49.647Z,50.80
2019-01-26T00:09:19.949Z,52.50
2019-01-26T00:11:50.736Z,55.57
2019-01-26T00:14:21.664Z,57.50
2019-01-26T00:16:52.430Z,52.53
2019-01-26T00:19:23.098Z,51.27
2019-01-26T00:21:53.817Z,53.43
2019-01-26T00:24:24.436Z,53.00
2019-01-26T00:26:54.853Z,52.90
2019-01-26T00:29:27.023Z,50.70
2019-01-26T00:31:57.876Z,52.73
2019-01-26T00:34:30.076Z,52.70
2019-01-26T00:37:00.892Z,48.03
2019-01-26T00:39:31.495Z,48.53
2019-01-26T00:42:02.119Z,49.30
2019-01-26T00:44:34.120Z,50.07
2019-01-26T00:47:04.817Z,51.87
2019-01-26T00:49:35.459Z,51.10
2019-01-26T00:52:06.006Z,53.63
2019-01-26T00:54:38.366Z,54.67
2019-01-26T00:57:09.126Z,53.43
2019-01-26T00:59:41.174Z,52.03
2019-01-26T01:02:11.826Z,50.43
2019-01-26T01:04:42.413Z,53.67
2019-01-26T01:07:14.611Z,53.83
2019-01-26T01:09:45.286Z,53.63
2019-01-26T01:12:16.008Z,53.30
2019-01-26T01:14:47.456Z,53.77
2019-01-26T01:17:17.745Z,56.97
2019-01-26T01:19:49.066Z,53.00
2019-01-26T01:22:19.724Z,53.53
2019-01-26T01:24:50.360Z,54.53
2019-01-26T01:27:20.963Z,54.50
2019-01-26T01:29:51.598Z,55.70
2019-01-26T01:32:21.877Z,54.80
2019-01-26T01:34:52.533Z,53.43
2019-01-26T01:37:23.077Z,56.50
2019-01-26T01:39:57.612Z,54.33
2019-01-26T01:42:27.954Z,56.07
2019-01-26T01:44:58.595Z,56.93
2019-01-26T01:47:29.225Z,52.50
2019-01-26T01:49:59.983Z,56.60
2019-01-26T01:52:30.665Z,55.37
2019-01-26T01:55:01.394Z,60.63
2019-01-26T01:57:32.155Z,51.37
2019-01-26T02:00:02.763Z,53.97
2019-01-26T02:02:33.516Z,52.93
2019-01-26T02:05:08.439Z,53.03
2019-01-26T02:07:39.166Z,55.53
2019-01-26T02:10:12.285Z,53.77
2019-01-26T02:12:42.889Z,48.10
2019-01-26T02:15:14.091Z,51.10
2019-01-26T02:17:44.690Z,48.80
2019-01-26T02:20:17.736Z,52.87
2019-01-26T02:22:48.390Z,54.60
2019-01-26T02:25:22.097Z,51.60
2019-01-26T02:27:52.865Z,52.07
2019-01-26T02:30:24.074Z,52.80
2019-01-26T02:32:54.912Z,50.47
2019-01-26T02:35:25.476Z,49.07
2019-01-26T02:37:56.060Z,46.33
2019-01-26T02:40:26.703Z,59.00
2019-01-26T02:42:57.235Z,52.20
2019-01-26T02:45:27.488Z,52.37
2019-01-26T02:47:58.067Z,51.37
2019-01-26T02:50:28.714Z,50.27
2019-01-26T02:52:59.293Z,52.33
2019-01-26T02:55:29.604Z,49.53
2019-01-26T02:58:00.271Z,52.97
2019-01-26T03:00:30.899Z,52.80
2019-01-26T03:03:01.448Z,51.60
2019-01-26T03:05:32.094Z,51.63
2019-01-26T03:08:02.729Z,50.53
2019-01-26T03:10:33.344Z,50.17
2019-01-26T03:13:04.002Z,48.97
2019-01-26T03:15:34.624Z,53.40
2019-01-26T03:18:06.361Z,52.33
2019-01-26T03:20:36.905Z,52.07
2019-01-26T03:23:07.449Z,51.67
2019-01-26T03:25:37.778Z,52.27
2019-01-26T03:28:08.485Z,53.47
2019-01-26T03:30:39.136Z,52.63
2019-01-26T03:33:09.696Z,50.40
2019-01-26T03:35:40.416Z,52.33
2019-01-26T03:38:12.570Z,54.77
2019-01-26T03:40:42.896Z,52.10
2019-01-26T03:43:13.727Z,53.97
2019-01-26T03:45:44.425Z,51.53
2019-01-26T03:48:15.126Z,52.23
2019-01-26T03:50:45.987Z,49.53
2019-01-26T03:53:16.695Z,51.10
2019-01-26T03:55:47.389Z,51.53
2019-01-26T03:58:17.924Z,53.97
2019-01-26T04:00:48.577Z,52.63
2019-01-26T04:03:19.187Z,53.93
2019-01-26T04:05:49.911Z,53.73
2019-01-26T04:08:20.544Z,54.33
2019-01-26T04:10:51.177Z,51.27
2019-01-26T04:13:21.901Z,52.47
2019-01-26T04:15:52.544Z,54.03
2019-01-26T04:18:23.473Z,51.17
2019-01-26T04:20:54.122Z,50.83
2019-01-26T04:23:24.642Z,52.13
2019-01-26T04:25:55.276Z,53.20
2019-01-26T04:28:25.942Z,54.30
2019-01-26T04:30:56.271Z,54.17
2019-01-26T04:33:26.985Z,55.20
2019-01-26T04:35:57.580Z,53.13
2019-01-26T04:38:28.229Z,52.73
2019-01-26T04:40:59.854Z,60.90
2019-01-26T04:43:30.431Z,56.30
2019-01-26T04:46:01.153Z,55.07
2019-01-26T04:48:31.771Z,53.90
2019-01-26T04:51:02.053Z,54.87
2019-01-26T04:53:32.724Z,55.70
2019-01-26T04:56:03.381Z,58.07
2019-01-26T04:58:34.138Z,52.97
2019-01-26T05:01:04.737Z,51.07
2019-01-26T05:03:35.333Z,56.43
2019-01-26T05:06:06.061Z,55.30
2019-01-26T05:08:36.749Z,55.40
2019-01-26T05:11:07.056Z,54.33
2019-01-26T05:13:38.107Z,52.47
2019-01-26T05:16:08.818Z,51.17
2019-01-26T05:18:39.349Z,53.17
2019-01-26T05:21:10.041Z,50.07
2019-01-26T05:23:40.307Z,50.37
2019-01-26T05:26:10.938Z,52.90
2019-01-26T05:28:41.484Z,53.70
2019-01-26T05:31:12.281Z,51.30
2019-01-26T05:33:43.000Z,53.83
2019-01-26T05:36:13.564Z,50.83
2019-01-26T05:38:44.239Z,47.53
2019-01-26T05:41:14.851Z,52.50
2019-01-26T05:43:45.576Z,54.97
2019-01-26T05:46:15.927Z,53.87
2019-01-26T05:48:46.140Z,52.00
2019-01-26T05:51:16.764Z,51.87
2019-01-26T05:53:49.032Z,52.17
2019-01-26T05:56:19.666Z,52.67
2019-01-26T05:58:50.503Z,50.37
2019-01-26T06:01:21.130Z,53.63
2019-01-26T06:03:51.672Z,52.07
2019-01-26T06:06:22.326Z,50.23
2019-01-26T06:08:52.920Z,53.83
2019-01-26T06:11:23.656Z,50.87
2019-01-26T06:13:54.381Z,53.97
2019-01-26T06:16:25.061Z,52.30
2019-01-26T06:18:55.579Z,51.87
2019-01-26T06:21:26.187Z,55.97
2019-01-26T06:23:57.025Z,52.90
2019-01-26T06:26:27.948Z,56.03
2019-01-26T06:28:59.169Z,59.80
2019-01-26T06:31:29.430Z,56.17
2019-01-26T06:34:01.623Z,53.73
2019-01-26T06:36:32.212Z,55.37
2019-01-26T06:39:04.424Z,57.90
2019-01-26T06:41:35.031Z,56.37
2019-01-26T06:44:05.714Z,50.87
2019-01-26T06:46:36.290Z,54.83
2019-01-26T06:49:06.905Z,52.37
2019-01-26T06:51:39.200Z,56.43
2019-01-26T06:54:09.717Z,51.63
2019-01-26T06:56:40.366Z,54.73
2019-01-26T06:59:10.868Z,56.37
2019-01-26T07:01:42.017Z,55.17
2019-01-26T07:04:14.237Z,49.03
2019-01-26T07:06:46.454Z,47.63
2019-01-26T07:09:16.749Z,49.63
2019-01-26T07:11:47.416Z,50.67
2019-01-26T07:14:18.050Z,52.10
2019-01-26T07:16:48.738Z,49.63
2019-01-26T07:19:19.007Z,50.67
2019-01-26T07:21:49.660Z,47.13
2019-01-26T07:24:20.374Z,43.10
2019-01-26T07:26:50.621Z,51.97
2019-01-26T07:29:21.110Z,45.83
2019-01-26T07:31:51.754Z,47.13
2019-01-26T07:34:22.270Z,50.93
2019-01-26T07:36:52.801Z,48.10
2019-01-26T07:39:23.355Z,46.80
2019-01-26T07:41:54.089Z,45.57
2019-01-26T07:44:24.607Z,42.37
2019-01-26T07:46:55.254Z,47.97
2019-01-26T07:49:25.874Z,45.53
2019-01-26T07:51:56.601Z,48.60
2019-01-26T07:54:27.233Z,46.60
2019-01-26T07:56:57.865Z,47.83
2019-01-26T07:59:28.485Z,45.50
2019-01-26T08:01:59.029Z,44.03
2019-01-26T08:04:29.661Z,48.87
2019-01-26T08:07:00.493Z,49.53
2019-01-26T08:09:33.783Z,46.00
2019-01-26T08:12:04.410Z,51.90
2019-01-26T08:14:34.628Z,52.57
2019-01-26T08:17:05.066Z,47.50
2019-01-26T08:19:36.521Z,51.20
2019-01-26T08:22:07.277Z,44.77
2019-01-26T08:24:37.992Z,47.53
2019-01-26T08:27:08.503Z,48.60
2019-01-26T08:29:39.257Z,48.23
2019-01-26T08:32:12.335Z,49.97
2019-01-26T08:34:42.971Z,44.53
2019-01-26T08:37:13.520Z,51.20
2019-01-26T08:39:44.260Z,56.40
2019-01-26T08:42:14.867Z,48.93
2019-01-26T08:44:45.506Z,50.00
2019-01-26T08:47:16.131Z,47.60
2019-01-26T08:49:46.763Z,46.50
2019-01-26T08:52:18.050Z,40.20
2019-01-26T08:54:49.185Z,45.73
2019-01-26T08:57:19.931Z,46.40
2019-01-26T08:59:50.623Z,51.50
2019-01-26T09:02:33.339Z,51.03
2019-01-26T09:05:05.140Z,46.60
2019-01-26T09:07:35.733Z,45.50
2019-01-26T09:10:07.540Z,45.50
2019-01-26T09:12:38.114Z,43.93
2019-01-26T09:15:10.273Z,47.73
2019-01-26T09:17:43.431Z,46.13
2019-01-26T09:20:19.228Z,49.70
2019-01-26T09:22:49.790Z,47.53
2019-01-26T09:25:20.051Z,44.53
2019-01-26T09:27:50.710Z,43.17
2019-01-26T09:30:23.605Z,48.77
2019-01-26T09:32:54.831Z,50.43
2019-01-26T09:35:25.397Z,52.13
2019-01-26T09:37:56.141Z,48.77
2019-01-26T09:40:28.162Z,41.73
2019-01-26T09:42:58.922Z,42.07
2019-01-26T09:45:29.592Z,40.27
2019-01-26T09:48:00.390Z,35.70
2019-01-26T09:50:30.960Z,41.23
2019-01-26T09:53:01.670Z,36.70
2019-01-26T09:55:32.419Z,39.40
2019-01-26T09:58:03.274Z,38.50
2019-01-26T10:00:33.869Z,32.63
2019-01-26T10:03:06.875Z,38.40
2019-01-26T10:05:39.703Z,31.57
2019-01-26T10:08:10.558Z,34.97
2019-01-26T10:10:42.925Z,29.00
2019-01-26T10:13:13.603Z,31.77
2019-01-26T10:15:44.326Z,25.03
2019-01-26T10:18:15.334Z,26.30
2019-01-26T10:20:45.869Z,23.30
2019-01-26T10:23:16.621Z,26.70
2019-01-26T10:25:48.665Z,23.20
2019-01-26T10:28:19.760Z,22.90
2019-01-26T10:30:51.960Z,20.67
2019-01-26T10:33:22.604Z,21.83
2019-01-26T10:36:04.203Z,21.10
2019-01-26T10:38:36.495Z,24.80
2019-01-26T10:41:08.796Z,24.97
2019-01-26T10:43:43.964Z,24.47
2019-01-26T10:46:14.737Z,24.73
2019-01-26T10:48:45.472Z,22.97
2019-01-26T10:51:16.078Z,25.57
2019-01-26T10:53:46.781Z,27.83
2019-01-26T10:56:17.451Z,37.50
2019-01-26T10:58:48.076Z,25.57
2019-01-26T11:01:18.596Z,23.60
2019-01-26T11:03:49.217Z,25.53
2019-01-26T11:06:19.746Z,24.07
2019-01-26T11:08:50.411Z,23.17
2019-01-26T11:11:21.023Z,23.70
2019-01-26T11:13:53.320Z,26.77
2019-01-26T11:16:24.072Z,32.07
2019-01-26T11:18:54.799Z,26.13
2019-01-26T11:21:25.622Z,30.47
2019-01-26T11:23:55.939Z,22.60
2019-01-26T11:26:26.549Z,19.80
2019-01-26T11:28:57.323Z,22.00
2019-01-26T11:31:28.581Z,15.07
2019-01-26T11:34:09.854Z,18.57
2019-01-26T11:36:42.299Z,19.23
2019-01-26T11:39:12.933Z,21.23
2019-01-26T11:41:43.563Z,17.53
2019-01-26T11:44:14.309Z,20.10
2019-01-26T11:46:44.921Z,18.67
2019-01-26T11:49:15.587Z,21.00
2019-01-26T11:51:45.875Z,16.47
2019-01-26T11:54:16.410Z,18.87
2019-01-26T11:56:48.699Z,17.47
2019-01-26T11:59:19.545Z,18.70
2019-01-26T12:01:51.772Z,17.53
2019-01-26T12:04:30.011Z,22.00
2019-01-26T12:07:02.379Z,17.50
2019-01-26T12:09:33.197Z,17.07
2019-01-26T12:12:04.882Z,16.23
2019-01-26T12:14:35.688Z,15.33
2019-01-26T12:17:06.223Z,12.77
2019-01-26T12:19:41.610Z,13.03
2019-01-26T12:22:12.263Z,14.37
2019-01-26T12:24:42.916Z,14.23
2019-01-26T12:27:13.561Z,13.33
2019-01-26T12:29:44.207Z,12.03
2019-01-26T12:32:14.727Z,16.30
2019-01-26T12:34:45.419Z,14.07
2019-01-26T12:37:15.755Z,17.20
2019-01-26T12:39:46.529Z,11.13
2019-01-26T12:42:17.169Z,12.50
2019-01-26T12:44:47.773Z,22.93
2019-01-26T12:47:19.237Z,12.43
2019-01-26T12:49:49.564Z,10.57
2019-01-26T12:52:20.407Z,11.50
2019-01-26T12:54:51.048Z,9.97
2019-01-26T12:57:21.600Z,10.03
2019-01-26T12:59:51.884Z,10.70
2019-01-26T13:02:22.496Z,10.80
2019-01-26T13:04:53.144Z,9.83
2019-01-26T13:07:23.679Z,11.83
2019-01-26T13:09:54.308Z,8.87
2019-01-26T13:12:24.594Z,10.37
2019-01-26T13:14:55.283Z,10.13
2019-01-26T13:17:26.412Z,9.00
2019-01-26T13:19:57.041Z,8.33
2019-01-26T13:22:27.675Z,8.67
2019-01-26T13:24:58.443Z,6.83
2019-01-26T13:27:29.135Z,7.63
2019-01-26T13:30:01.324Z,7.50
2019-01-26T13:32:31.760Z,8.13
2019-01-26T13:35:05.231Z,9.37
2019-01-26T13:37:37.110Z,9.20
2019-01-26T13:40:12.336Z,9.40
2019-01-26T13:42:42.983Z,8.00
2019-01-26T13:45:15.537Z,7.00
2019-01-26T13:47:46.173Z,9.27
2019-01-26T13:50:16.828Z,8.97
2019-01-26T13:52:51.324Z,7.67
2019-01-26T13:55:23.484Z,9.23
2019-01-26T13:57:54.086Z,8.63
2019-01-26T14:00:30.948Z,10.00
2019-01-26T14:03:03.305Z,9.57
2019-01-26T14:05:33.527Z,9.37
2019-01-26T14:08:04.127Z,7.43
2019-01-26T14:10:36.513Z,8.93
2019-01-26T14:13:07.144Z,8.90
2019-01-26T14:15:37.490Z,7.20
2019-01-26T14:18:08.109Z,7.57
2019-01-26T14:20:38.428Z,9.43
2019-01-26T14:23:08.922Z,7.80
2019-01-26T14:25:40.163Z,9.37
2019-01-26T14:28:10.831Z,10.87
2019-01-26T14:30:44.938Z,8.87
2019-01-26T14:33:15.675Z,8.60
2019-01-26T14:35:46.256Z,10.13
2019-01-26T14:38:16.827Z,9.90
2019-01-26T14:40:47.382Z,8.53
2019-01-26T14:43:17.748Z,10.70
2019-01-26T14:45:48.544Z,9.67
2019-01-26T14:48:18.789Z,7.73
2019-01-26T14:50:49.096Z,11.20
2019-01-26T14:53:19.735Z,8.37
2019-01-26T14:55:50.529Z,9.47
2019-01-26T14:58:21.205Z,6.60
2019-01-26T15:00:51.916Z,8.17
2019-01-26T15:03:22.786Z,7.40
2019-01-26T15:06:00.653Z,7.00
2019-01-26T15:08:31.496Z,8.60
2019-01-26T15:11:01.962Z,8.60
2019-01-26T15:13:32.779Z,7.17
2019-01-26T15:16:03.483Z,7.33
2019-01-26T15:18:36.433Z,7.47
2019-01-26T15:21:07.091Z,7.73
2019-01-26T15:23:37.856Z,7.67
2019-01-26T15:26:08.500Z,8.17
2019-01-26T15:28:42.959Z,6.93
2019-01-26T15:31:11.595Z,7.53
2019-01-26T15:33:42.244Z,9.07
2019-01-26T15:36:12.552Z,8.70
2019-01-26T15:38:43.179Z,8.83
2019-01-26T15:41:13.895Z,10.93
2019-01-26T15:43:44.883Z,18.73
2019-01-26T15:46:15.632Z,17.40
2019-01-26T15:48:46.355Z,12.73
2019-01-26T15:51:18.818Z,10.67
2019-01-26T15:53:49.500Z,12.63
2019-01-26T15:56:20.163Z,8.17
2019-01-26T15:58:50.915Z,10.03
2019-01-26T16:01:21.705Z,12.13
2019-01-26T16:03:52.372Z,11.17
2019-01-26T16:06:23.366Z,10.20
2019-01-26T16:08:54.152Z,9.63
2019-01-26T16:11:24.888Z,11.23
2019-01-26T16:13:55.206Z,10.40
2019-01-26T16:16:25.927Z,20.47
2019-01-26T16:18:56.649Z,11.80
2019-01-26T16:21:28.935Z,10.50
2019-01-26T16:23:59.676Z,11.47
2019-01-26T16:26:30.285Z,12.17
2019-01-26T16:29:01.061Z,10.03
2019-01-26T16:31:31.708Z,11.43
2019-01-26T16:34:02.148Z,12.07
2019-01-26T16:36:32.876Z,10.93
2019-01-26T16:39:05.040Z,12.17
2019-01-26T16:41:35.885Z,10.47
2019-01-26T16:44:06.451Z,12.93
2019-01-26T16:46:39.910Z,12.20
2019-01-26T16:49:10.489Z,12.90
2019-01-26T16:51:41.129Z,13.23
2019-01-26T16:54:11.882Z,12.80
2019-01-26T16:56:42.605Z,12.53
2019-01-26T16:59:13.304Z,11.47
2019-01-26T17:01:43.966Z,12.53
2019-01-26T17:04:14.310Z,14.83
2019-01-26T17:06:45.017Z,13.40
2019-01-26T17:09:15.721Z,14.30
2019-01-26T17:11:46.559Z,15.43
2019-01-26T17:14:17.228Z,14.63
2019-01-26T17:16:47.972Z,18.43
2019-01-26T17:19:18.780Z,17.97
2019-01-26T17:21:49.403Z,17.07
2019-01-26T17:24:19.952Z,18.20
2019-01-26T17:26:52.850Z,18.50
2019-01-26T17:29:23.038Z,27.83
2019-01-26T17:31:53.686Z,20.07
2019-01-26T17:34:30.081Z,20.23
2019-01-26T17:36:56.432Z,18.53
2019-01-26T17:39:28.231Z,27.40
2019-01-26T17:41:58.590Z,36.70
2019-01-26T17:44:30.208Z,24.03
2019-01-26T17:47:00.961Z,22.70
2019-01-26T17:49:31.677Z,20.30
2019-01-26T17:52:03.554Z,21.70
2019-01-26T17:54:33.880Z,22.27
2019-01-26T17:57:04.532Z,20.13
2019-01-26T17:59:35.217Z,20.40
2019-01-26T18:02:07.283Z,21.93
2019-01-26T18:04:37.942Z,20.43
2019-01-26T18:07:08.671Z,21.63
2019-01-26T18:09:39.300Z,20.33
2019-01-26T18:12:09.949Z,21.67
2019-01-26T18:14:40.700Z,20.30
2019-01-26T18:17:11.386Z,21.53
2019-01-26T18:19:42.035Z,20.63
2019-01-26T18:22:12.664Z,19.87
2019-01-26T18:24:43.315Z,22.57
2019-01-26T18:27:15.417Z,24.70
2019-01-26T18:29:47.990Z,25.17
2019-01-26T18:32:18.384Z,26.57
2019-01-26T18:34:48.686Z,30.00
2019-01-26T18:37:20.083Z,26.60
2019-01-26T18:39:50.803Z,22.27
2019-01-26T18:42:21.522Z,20.43
2019-01-26T18:44:52.161Z,20.50
2019-01-26T18:47:24.191Z,21.70
2019-01-26T18:49:54.489Z,19.90
2019-01-26T18:52:25.151Z,22.73
2019-01-26T18:54:55.944Z,21.40
2019-01-26T18:57:26.305Z,20.93
2019-01-26T18:59:59.668Z,20.77
2019-01-26T19:02:30.083Z,20.40
2019-01-26T19:05:03.963Z,19.10
2019-01-26T19:07:34.719Z,16.40
2019-01-26T19:10:08.805Z,17.77
2019-01-26T19:12:39.527Z,19.03
2019-01-26T19:15:13.776Z,19.27
2019-01-26T19:17:44.599Z,18.30
2019-01-26T19:20:16.160Z,18.20
2019-01-26T19:22:46.904Z,18.63
2019-01-26T19:25:21.849Z,18.13
2019-01-26T19:27:53.711Z,17.97
2019-01-26T19:30:24.608Z,18.07
2019-01-26T19:32:57.145Z,17.40
2019-01-26T19:35:27.820Z,17.63
2019-01-26T19:37:58.662Z,17.10
2019-01-26T19:40:29.170Z,14.80
2019-01-26T19:43:00.528Z,18.10
2019-01-26T19:45:31.923Z,16.83
2019-01-26T19:48:03.387Z,15.87
2019-01-26T19:50:35.774Z,17.03
2019-01-26T19:53:08.898Z,19.20
2019-01-26T19:55:39.890Z,16.77
2019-01-26T19:58:10.439Z,15.57
2019-01-26T20:00:42.431Z,15.93
2019-01-26T20:03:13.074Z,17.60
2019-01-26T20:05:48.066Z,16.33
2019-01-26T20:08:15.954Z,17.30
2019-01-26T20:10:46.732Z,17.03
2019-01-26T20:13:17.219Z,16.17
2019-01-26T20:15:48.001Z,15.83
2019-01-26T20:18:18.854Z,16.07
2019-01-26T20:20:53.408Z,16.27
2019-01-26T20:23:23.763Z,17.40
2019-01-26T20:25:54.384Z,17.73
2019-01-26T20:28:25.132Z,15.23
2019-01-26T20:30:55.906Z,16.97
2019-01-26T20:33:26.721Z,17.93
2019-01-26T20:35:58.350Z,17.70
2019-01-26T20:38:29.165Z,19.43
2019-01-26T20:40:59.746Z,30.07
2019-01-26T20:43:30.115Z,40.97
2019-01-26T20:46:00.770Z,53.90
2019-01-26T20:48:31.494Z,21.70
2019-01-26T20:51:02.229Z,18.63
2019-01-26T20:53:32.904Z,16.73
2019-01-26T20:56:03.748Z,15.97
2019-01-26T20:58:35.158Z,18.50
2019-01-26T21:01:05.911Z,18.10
2019-01-26T21:03:36.695Z,17.77
2019-01-26T21:06:07.252Z,14.93
2019-01-26T21:08:38.060Z,18.80
2019-01-26T21:11:09.572Z,14.93
2019-01-26T21:13:40.390Z,18.23
2019-01-26T21:16:11.768Z,18.10
2019-01-26T21:18:42.498Z,16.57
2019-01-26T21:21:13.232Z,17.30
2019-01-26T21:23:44.044Z,16.50
2019-01-26T21:26:14.824Z,15.87
2019-01-26T21:28:45.744Z,14.97
2019-01-26T21:31:16.447Z,15.70
2019-01-26T21:33:46.756Z,15.37
2019-01-26T21:36:19.163Z,15.27
2019-01-26T21:38:49.839Z,15.90
2019-01-26T21:41:20.530Z,15.37
2019-01-26T21:43:51.279Z,15.93
2019-01-26T21:46:21.993Z,17.93
2019-01-26T21:48:52.415Z,18.67
2019-01-26T21:51:23.369Z,23.13
2019-01-26T21:53:55.320Z,25.23
2019-01-26T21:56:25.920Z,21.70
2019-01-26T21:58:56.553Z,20.47
2019-01-26T22:01:27.639Z,18.60
2019-01-26T22:03:58.456Z,17.63
2019-01-26T22:06:28.815Z,17.60
2019-01-26T22:08:59.595Z,19.07
2019-01-26T22:11:30.219Z,18.23
2019-01-26T22:14:01.016Z,17.97
2019-01-26T22:16:31.694Z,18.40
2019-01-26T22:19:02.478Z,20.47
2019-01-26T22:21:33.055Z,21.60
2019-01-26T22:24:03.808Z,18.73
2019-01-26T22:26:36.126Z,23.33
2019-01-26T22:29:08.498Z,22.50
2019-01-26T22:31:39.300Z,28.27
2019-01-26T22:34:09.919Z,28.47
2019-01-26T22:36:40.556Z,25.67
2019-01-26T22:39:10.901Z,26.53
2019-01-26T22:41:41.616Z,25.90
2019-01-26T22:44:12.325Z,22.87
2019-01-26T22:46:42.953Z,21.63
2019-01-26T22:49:13.649Z,22.83
2019-01-26T22:51:44.338Z,22.30
2019-01-26T22:54:15.000Z,21.87
2019-01-26T22:56:45.240Z,21.83
2019-01-26T22:59:15.927Z,22.53
2019-01-26T23:01:46.470Z,32.50
2019-01-26T23:04:29.179Z,25.63
2019-01-26T23:07:06.135Z,23.97
2019-01-26T23:09:52.031Z,21.17
2019-01-26T23:12:43.877Z,23.33
2019-01-26T23:15:34.070Z,24.03
2019-01-26T23:18:25.908Z,24.53
2019-01-26T23:21:05.315Z,24.23
2019-01-26T23:23:48.013Z,25.27
2019-01-26T23:26:24.817Z,25.67
2019-01-26T23:29:01.764Z,24.70
2019-01-26T23:31:32.530Z,29.37
2019-01-26T23:34:03.164Z,25.10
2019-01-26T23:36:33.893Z,27.97
2019-01-26T23:39:06.070Z,27.93
2019-01-26T23:41:38.343Z,26.43
2019-01-26T23:44:09.142Z,30.20
2019-01-26T23:46:39.722Z,29.07
2019-01-26T23:49:10.320Z,25.90
2019-01-26T23:51:41.083Z,28.23
2019-01-26T23:54:11.609Z,27.20
2019-01-26T23:56:42.212Z,29.83
2019-01-26T23:59:12.861Z,29.13
